Cosco Kaohsiung — VREM3 — position and weather

sailwx.info

Track history (hours):
 
Tides and Currents Weather Stations Pressure Air Temp Water Temp Dewpoint Dewpoint Depression Visibility Wind Speed Wind Dir Waves Ship Positions

Cosco Kaohsiung

Last reported at 2016-May-02 04:21 UTC. Time now 2016-May-07 00:28 UTC.
Position N 31°02' E 032°19'.

Length 349 m; draft 13.3 m.

Type: Ship (hazmat cat A). MMSI: 477136800.

Date/timePositionNaut miles runAvg speedWind from/ knotsBaromVisibWave heightAir tempDewpointWater temp
2016-May-02 04:21N 31°02' E 032°19'  
2016-Apr-29 21:09N 37°14' E 024°08'812.3
2016-Apr-29 20:31N 37°20' E 024°01'1212.3
2016-Apr-29 19:33N 37°28' E 023°50'1212.5
2016-Apr-29 18:34N 37°39' E 023°43'1212.4
2016-Apr-29 17:34N 37°50' E 023°37'7 7.1
2016-Apr-29 16:34N 37°57' E 023°35'0 0.2
2016-Apr-29 15:32N 37°57' E 023°35'0 0.0
2016-Apr-29 14:32N 37°57' E 023°35'0 0.0
2016-Apr-29 13:32N 37°57' E 023°35'0 0.0
2016-Apr-29 12:31N 37°57' E 023°35'0 0.0
2016-Apr-29 11:32N 37°57' E 023°35'0 0.0
2016-Apr-29 10:32N 37°57' E 023°35'0 0.0
2016-Apr-29 09:31N 37°57' E 023°35'0 0.0
2016-Apr-29 08:32N 37°57' E 023°35'0 0.0
2016-Apr-29 07:31N 37°57' E 023°35'0 0.0
2016-Apr-29 06:31N 37°57' E 023°35'0 0.0
2016-Apr-29 05:32N 37°57' E 023°35'0 0.0
2016-Apr-29 04:32N 37°57' E 023°35'0 0.0
2016-Apr-29 03:31N 37°57' E 023°35'0 0.0
2016-Apr-29 02:32N 37°57' E 023°35'0 0.0
2016-Apr-29 01:31N 37°57' E 023°35'0 0.0
2016-Apr-29 00:31N 37°57' E 023°35'0 0.0
2016-Apr-28 23:31N 37°57' E 023°35'0 0.0
2016-Apr-28 22:32N 37°57' E 023°35'0 0.0
2016-Apr-28 21:32N 37°57' E 023°35'0 0.0
2016-Apr-28 20:31N 37°57' E 023°35'0 0.0
2016-Apr-28 19:32N 37°57' E 023°35'0 0.0
2016-Apr-28 18:31N 37°57' E 023°35'0 0.0
2016-Apr-28 17:31N 37°57' E 023°35'0 0.4
2016-Apr-28 16:33N 37°57' E 023°35'3 3.5
2016-Apr-28 15:33N 37°53' E 023°35'6 6.4
2016-Apr-28 14:33N 37°49' E 023°40'1313.5
2016-Apr-28 13:33N 37°36' E 023°45'1111.1
2016-Apr-28 12:34N 37°25' E 023°41'1313.1
2016-Apr-28 11:33N 37°12' E 023°36'1313.4
2016-Apr-28 10:33N 36°59' E 023°31'1413.6
2016-Apr-28 09:32N 36°46' E 023°25'36215.5
2016-Apr-27 10:11N 36°33' E 015°54'2716.3
2016-Apr-27 08:33N 36°34' E 015°21'1716.6
2016-Apr-27 07:33N 36°36' E 015°00'1716.9
2016-Apr-27 06:33N 36°38' E 014°40'1717.6
2016-Apr-27 05:33N 36°43' E 014°19'1717.1
2016-Apr-27 04:33N 36°48' E 013°59'1716.7
2016-Apr-27 03:33N 36°53' E 013°39'1716.7
2016-Apr-27 02:33N 36°58' E 013°19'1917.2
2016-Apr-27 01:29N 37°04' E 012°57'45516.6
2016-Apr-25 22:08N 38°50' E 003°36'1017.0
2016-Apr-25 21:33N 38°52' E 003°23'1717.1
2016-Apr-25 20:33N 38°56' E 003°02'1716.8
2016-Apr-25 19:33N 38°60' E 002°41'1616.2
2016-Apr-25 18:33N 39°03' E 002°21'1716.8
2016-Apr-25 17:33N 39°07' E 001°59'1716.6
2016-Apr-25 16:33N 39°10' E 001°38'8416.3
2016-Apr-25 11:23N 39°24' W 000°09'810.1
2016-Apr-25 10:33N 39°26' W 000°20'0 0.0
2016-Apr-25 05:25N 39°26' W 000°20'0 0.0
2016-Apr-25 04:31N 39°26' W 000°20'0 0.0
2016-Apr-25 03:10N 39°26' W 000°20'0 0.0
2016-Apr-25 02:31N 39°26' W 000°20'0 0.0
2016-Apr-25 01:31N 39°26' W 000°20'0 0.0
2016-Apr-25 00:31N 39°26' W 000°20'0 0.0
2016-Apr-24 23:31N 39°26' W 000°20'0 0.0
2016-Apr-24 22:28N 39°26' W 000°20'0 0.0
2016-Apr-24 21:28N 39°26' W 000°20'0 0.0
2016-Apr-24 19:16N 39°26' W 000°20'0 0.0
2016-Apr-24 18:19N 39°26' W 000°20'0 0.0
2016-Apr-24 17:31N 39°26' W 000°20'0 0.0
2016-Apr-24 16:31N 39°26' W 000°20'0 0.0
2016-Apr-24 15:28N 39°26' W 000°20'0 0.1
2016-Apr-24 14:34N 39°26' W 000°20'4 3.9
2016-Apr-24 13:33N 39°24' W 000°15'0 0.0
2016-Apr-24 09:22N 39°24' W 000°15'0 0.1
2016-Apr-24 07:31N 39°24' W 000°15'0 0.0
2016-Apr-24 05:25N 39°24' W 000°15'0 0.0
2016-Apr-24 04:31N 39°24' W 000°15'0 0.1
2016-Apr-24 03:25N 39°24' W 000°15'0 0.0
2016-Apr-24 02:31N 39°24' W 000°15'0 0.1
2016-Apr-24 01:31N 39°24' W 000°15'0 0.1
2016-Apr-24 00:25N 39°24' W 000°15'0 0.0
2016-Apr-23 23:28N 39°24' W 000°15'0 0.0
2016-Apr-23 22:13N 39°24' W 000°15'0 0.3
2016-Apr-23 21:31N 39°24' W 000°15'0 0.1
2016-Apr-23 20:28N 39°24' W 000°16'0 0.0
2016-Apr-23 19:31N 39°24' W 000°16'0 0.1
2016-Apr-23 17:13N 39°24' W 000°16'0 0.0
2016-Apr-23 16:13N 39°24' W 000°16'0 0.0
2016-Apr-23 15:28N 39°24' W 000°16'0 0.0
2016-Apr-23 14:07N 39°24' W 000°16'0 0.0
2016-Apr-23 11:13N 39°24' W 000°16'0 0.3
2016-Apr-23 10:28N 39°24' W 000°15'4 4.5
2016-Apr-23 09:33N 39°27' W 000°12'1010.4
2016-Apr-23 08:33N 39°35' W 000°03'40 9.9
2016-Apr-23 04:32N 40°03' E 000°34'1111.0
2016-Apr-23 03:32N 40°11' E 000°45'1110.9
2016-Apr-23 02:32N 40°18' E 000°55'1111.0
2016-Apr-23 01:33N 40°25' E 001°05'1111.1
2016-Apr-23 00:33N 40°33' E 001°15'1111.0
2016-Apr-22 23:33N 40°41' E 001°26'1110.9
2016-Apr-22 22:33N 40°49' E 001°36'1110.8
2016-Apr-22 21:33N 40°57' E 001°45'1110.5
2016-Apr-22 20:33N 41°04' E 001°55'1110.6
2016-Apr-22 19:33N 41°12' E 002°05'8 8.1
2016-Apr-22 18:33N 41°19' E 002°10'1 0.9
2016-Apr-22 17:33N 41°18' E 002°09'0 0.0
2016-Apr-22 16:33N 41°18' E 002°09'0 0.0
2016-Apr-22 15:30N 41°18' E 002°09'0 0.0
2016-Apr-22 14:30N 41°18' E 002°09'0 0.0
2016-Apr-22 12:15N 41°18' E 002°09'0 0.0
2016-Apr-22 07:33N 41°18' E 002°09'1 0.3
2016-Apr-22 04:33N 41°19' E 002°10'  
Track history (hours):
 
Tides and Currents Weather Stations Pressure Air Temp Water Temp Dewpoint Dewpoint Depression Visibility Wind Speed Wind Dir Waves Ship Positions

Cosco Kaohsiung

Last reported at 2016-May-02 04:21 UTC. Time now 2016-May-07 00:28 UTC.
Position N 31°02' E 032°19'.

Length 349 m; draft 13.3 m.

Type: Ship (hazmat cat A). MMSI: 477136800.

Date/timePositionNaut miles runAvg speedWind from/ knotsBaromVisibWave heightAir tempDewpointWater temp
2016-May-02 04:21N 31°02' E 032°19'  
2016-Apr-29 21:09N 37°14' E 024°08'812.3
2016-Apr-29 20:31N 37°20' E 024°01'1212.3
2016-Apr-29 19:33N 37°28' E 023°50'1212.5
2016-Apr-29 18:34N 37°39' E 023°43'1212.4
2016-Apr-29 17:34N 37°50' E 023°37'7 7.1
2016-Apr-29 16:34N 37°57' E 023°35'0 0.2
2016-Apr-29 15:32N 37°57' E 023°35'0 0.0
2016-Apr-29 14:32N 37°57' E 023°35'0 0.0
2016-Apr-29 13:32N 37°57' E 023°35'0 0.0
2016-Apr-29 12:31N 37°57' E 023°35'0 0.0
2016-Apr-29 11:32N 37°57' E 023°35'0 0.0
2016-Apr-29 10:32N 37°57' E 023°35'0 0.0
2016-Apr-29 09:31N 37°57' E 023°35'0 0.0
2016-Apr-29 08:32N 37°57' E 023°35'0 0.0
2016-Apr-29 07:31N 37°57' E 023°35'0 0.0
2016-Apr-29 06:31N 37°57' E 023°35'0 0.0
2016-Apr-29 05:32N 37°57' E 023°35'0 0.0
2016-Apr-29 04:32N 37°57' E 023°35'0 0.0
2016-Apr-29 03:31N 37°57' E 023°35'0 0.0
2016-Apr-29 02:32N 37°57' E 023°35'0 0.0
2016-Apr-29 01:31N 37°57' E 023°35'0 0.0
2016-Apr-29 00:31N 37°57' E 023°35'0 0.0
2016-Apr-28 23:31N 37°57' E 023°35'0 0.0
2016-Apr-28 22:32N 37°57' E 023°35'0 0.0
2016-Apr-28 21:32N 37°57' E 023°35'0 0.0
2016-Apr-28 20:31N 37°57' E 023°35'0 0.0
2016-Apr-28 19:32N 37°57' E 023°35'0 0.0
2016-Apr-28 18:31N 37°57' E 023°35'0 0.0
2016-Apr-28 17:31N 37°57' E 023°35'0 0.4
2016-Apr-28 16:33N 37°57' E 023°35'3 3.5
2016-Apr-28 15:33N 37°53' E 023°35'6 6.4
2016-Apr-28 14:33N 37°49' E 023°40'1313.5
2016-Apr-28 13:33N 37°36' E 023°45'1111.1
2016-Apr-28 12:34N 37°25' E 023°41'1313.1
2016-Apr-28 11:33N 37°12' E 023°36'1313.4
2016-Apr-28 10:33N 36°59' E 023°31'1413.6
2016-Apr-28 09:32N 36°46' E 023°25'36215.5
2016-Apr-27 10:11N 36°33' E 015°54'2716.3
2016-Apr-27 08:33N 36°34' E 015°21'1716.6
2016-Apr-27 07:33N 36°36' E 015°00'1716.9
2016-Apr-27 06:33N 36°38' E 014°40'1717.6
2016-Apr-27 05:33N 36°43' E 014°19'1717.1
2016-Apr-27 04:33N 36°48' E 013°59'1716.7
2016-Apr-27 03:33N 36°53' E 013°39'1716.7
2016-Apr-27 02:33N 36°58' E 013°19'1917.2
2016-Apr-27 01:29N 37°04' E 012°57'45516.6
2016-Apr-25 22:08N 38°50' E 003°36'1017.0
2016-Apr-25 21:33N 38°52' E 003°23'1717.1
2016-Apr-25 20:33N 38°56' E 003°02'1716.8
2016-Apr-25 19:33N 38°60' E 002°41'1616.2
2016-Apr-25 18:33N 39°03' E 002°21'1716.8
2016-Apr-25 17:33N 39°07' E 001°59'1716.6
2016-Apr-25 16:33N 39°10' E 001°38'8416.3
2016-Apr-25 11:23N 39°24' W 000°09'810.1
2016-Apr-25 10:33N 39°26' W 000°20'0 0.0
2016-Apr-25 05:25N 39°26' W 000°20'0 0.0
2016-Apr-25 04:31N 39°26' W 000°20'0 0.0
2016-Apr-25 03:10N 39°26' W 000°20'0 0.0
2016-Apr-25 02:31N 39°26' W 000°20'0 0.0
2016-Apr-25 01:31N 39°26' W 000°20'0 0.0
2016-Apr-25 00:31N 39°26' W 000°20'0 0.0
2016-Apr-24 23:31N 39°26' W 000°20'0 0.0
2016-Apr-24 22:28N 39°26' W 000°20'0 0.0
2016-Apr-24 21:28N 39°26' W 000°20'0 0.0
2016-Apr-24 19:16N 39°26' W 000°20'0 0.0
2016-Apr-24 18:19N 39°26' W 000°20'0 0.0
2016-Apr-24 17:31N 39°26' W 000°20'0 0.0
2016-Apr-24 16:31N 39°26' W 000°20'0 0.0
2016-Apr-24 15:28N 39°26' W 000°20'0 0.1
2016-Apr-24 14:34N 39°26' W 000°20'4 3.9
2016-Apr-24 13:33N 39°24' W 000°15'0 0.0
2016-Apr-24 09:22N 39°24' W 000°15'0 0.1
2016-Apr-24 07:31N 39°24' W 000°15'0 0.0
2016-Apr-24 05:25N 39°24' W 000°15'0 0.0
2016-Apr-24 04:31N 39°24' W 000°15'0 0.1
2016-Apr-24 03:25N 39°24' W 000°15'0 0.0
2016-Apr-24 02:31N 39°24' W 000°15'0 0.1
2016-Apr-24 01:31N 39°24' W 000°15'0 0.1
2016-Apr-24 00:25N 39°24' W 000°15'0 0.0
2016-Apr-23 23:28N 39°24' W 000°15'0 0.0
2016-Apr-23 22:13N 39°24' W 000°15'0 0.3
2016-Apr-23 21:31N 39°24' W 000°15'0 0.1
2016-Apr-23 20:28N 39°24' W 000°16'0 0.0
2016-Apr-23 19:31N 39°24' W 000°16'0 0.1
2016-Apr-23 17:13N 39°24' W 000°16'0 0.0
2016-Apr-23 16:13N 39°24' W 000°16'0 0.0
2016-Apr-23 15:28N 39°24' W 000°16'0 0.0
2016-Apr-23 14:07N 39°24' W 000°16'0 0.0
2016-Apr-23 11:13N 39°24' W 000°16'0 0.3
2016-Apr-23 10:28N 39°24' W 000°15'4 4.5
2016-Apr-23 09:33N 39°27' W 000°12'1010.4
2016-Apr-23 08:33N 39°35' W 000°03'40 9.9
2016-Apr-23 04:32N 40°03' E 000°34'1111.0
2016-Apr-23 03:32N 40°11' E 000°45'1110.9
2016-Apr-23 02:32N 40°18' E 000°55'1111.0
2016-Apr-23 01:33N 40°25' E 001°05'1111.1
2016-Apr-23 00:33N 40°33' E 001°15'1111.0
2016-Apr-22 23:33N 40°41' E 001°26'1110.9
2016-Apr-22 22:33N 40°49' E 001°36'1110.8
2016-Apr-22 21:33N 40°57' E 001°45'1110.5
2016-Apr-22 20:33N 41°04' E 001°55'1110.6
2016-Apr-22 19:33N 41°12' E 002°05'8 8.1
2016-Apr-22 18:33N 41°19' E 002°10'1 0.9
2016-Apr-22 17:33N 41°18' E 002°09'0 0.0
2016-Apr-22 16:33N 41°18' E 002°09'0 0.0
2016-Apr-22 15:30N 41°18' E 002°09'0 0.0
2016-Apr-22 14:30N 41°18' E 002°09'0 0.0
2016-Apr-22 12:15N 41°18' E 002°09'0 0.0
2016-Apr-22 07:33N 41°18' E 002°09'1 0.3
2016-Apr-22 04:33N 41°19' E 002°10'  

Dump ship's entire track history